createdAt,value
2022-10-20T00:01:46.529Z,100507.56
2022-10-20T00:04:14.960Z,100514.22
2022-10-20T00:06:42.105Z,100513.44
2022-10-20T00:09:09.293Z,100512.28
2022-10-20T00:11:36.602Z,100506.88
2022-10-20T00:14:05.191Z,100506.88
2022-10-20T00:16:37.273Z,100505.13
2022-10-20T00:19:05.209Z,100507.03
2022-10-20T00:21:32.928Z,100514.06
2022-10-20T00:24:01.515Z,100506.25
2022-10-20T00:26:30.927Z,100512.28
2022-10-20T00:28:58.833Z,100515.59
2022-10-20T00:31:26.661Z,100522.53
2022-10-20T00:33:54.441Z,100525.75
2022-10-20T00:36:23.768Z,100509.59
2022-10-20T00:38:52.244Z,100512.03
2022-10-20T00:41:21.540Z,100517.06
2022-10-20T00:44:00.120Z,100510.16
2022-10-20T00:46:42.521Z,100519.97
2022-10-20T00:49:25.932Z,100514.78
2022-10-20T00:51:54.807Z,100520.97
2022-10-20T00:54:27.157Z,100527.06
2022-10-20T00:56:57.125Z,100521.09
2022-10-20T00:59:32.085Z,100524.56
2022-10-20T01:02:01.682Z,100529.69
2022-10-20T01:04:31.566Z,100530.22
2022-10-20T01:06:59.572Z,100529.63
2022-10-20T01:09:27.311Z,100524.44
2022-10-20T01:12:19.243Z,100525.44
2022-10-20T01:15:10.737Z,100530.34
2022-10-20T01:17:49.017Z,100535.75
2022-10-20T01:21:04.995Z,100527.88
2022-10-20T01:23:52.972Z,100541.66
2022-10-20T01:26:57.653Z,100529.13
2022-10-20T01:30:07.181Z,100528.78
2022-10-20T01:33:09.900Z,100532.03
2022-10-20T01:36:06.588Z,100523.84
2022-10-20T01:39:15.288Z,100523.84
2022-10-20T01:42:12.513Z,100524.53
2022-10-20T01:44:41.361Z,100521.66
2022-10-20T01:47:11.686Z,100531.09
2022-10-20T01:49:44.660Z,100522.22
2022-10-20T01:52:12.724Z,100529.75
2022-10-20T01:54:40.425Z,100523.44
2022-10-20T01:57:45.951Z,100525.41
2022-10-20T02:00:16.815Z,100535.69
2022-10-20T02:03:40.853Z,100530.44
2022-10-20T02:06:35.381Z,100532.84
2022-10-20T02:09:16.084Z,100537.03
2022-10-20T02:12:07.860Z,100531.78
2022-10-20T02:14:37.716Z,100525.53
2022-10-20T02:17:11.445Z,100530.78
2022-10-20T02:19:43.749Z,100524.66
2022-10-20T02:22:15.144Z,100530.22
2022-10-20T02:24:44.662Z,100527.34
2022-10-20T02:27:28.157Z,100523.91
2022-10-20T02:30:10.464Z,100520.44
2022-10-20T02:32:41.136Z,100518.63
2022-10-20T02:35:14.575Z,100520.44
2022-10-20T02:37:41.961Z,100524.59
2022-10-20T02:40:10.036Z,100522.59
2022-10-20T02:42:38.600Z,100524.44
2022-10-20T02:45:07.517Z,100534.78
2022-10-20T02:47:35.215Z,100530.41
2022-10-20T02:50:02.886Z,100527.78
2022-10-20T02:52:30.380Z,100537.25
2022-10-20T02:54:57.630Z,100536.19
2022-10-20T02:57:24.745Z,100530.94
2022-10-20T02:59:51.960Z,100538.69
2022-10-20T03:02:19.378Z,100539.94
2022-10-20T03:04:46.505Z,100542.47
2022-10-20T03:07:14.510Z,100544.00
2022-10-20T03:09:41.849Z,100536.19
2022-10-20T03:12:09.129Z,100536.34
2022-10-20T03:14:36.244Z,100538.13
2022-10-20T03:17:03.508Z,100543.69
2022-10-20T03:19:30.801Z,100547.31
2022-10-20T03:21:57.981Z,100538.69
2022-10-20T03:24:25.285Z,100543.09
2022-10-20T03:26:52.483Z,100527.25
2022-10-20T03:29:19.712Z,100534.84
2022-10-20T03:31:46.971Z,100538.13
2022-10-20T03:34:14.333Z,100540.53
2022-10-20T03:36:41.572Z,100541.53
2022-10-20T03:39:08.777Z,100543.53
2022-10-20T03:41:35.995Z,100552.09
2022-10-20T03:44:03.165Z,100552.75
2022-10-20T03:46:30.312Z,100551.88
2022-10-20T03:48:57.478Z,100546.41
2022-10-20T03:51:24.770Z,100553.44
2022-10-20T03:53:51.944Z,100551.78
2022-10-20T03:56:21.168Z,100557.94
2022-10-20T03:58:48.745Z,100547.88
2022-10-20T04:01:22.312Z,100563.47
2022-10-20T04:03:49.483Z,100557.91
2022-10-20T04:06:16.868Z,100561.59
2022-10-20T04:08:44.194Z,100559.22
2022-10-20T04:11:11.970Z,100558.53
2022-10-20T04:13:39.205Z,100555.06
2022-10-20T04:16:07.310Z,100552.53
2022-10-20T04:18:34.589Z,100556.13
2022-10-20T04:21:01.764Z,100557.63
2022-10-20T04:23:28.865Z,100565.41
2022-10-20T04:25:56.057Z,100567.16
2022-10-20T04:28:23.340Z,100563.47
2022-10-20T04:30:50.563Z,100559.22
2022-10-20T04:33:17.788Z,100568.88
2022-10-20T04:35:45.079Z,100573.28
2022-10-20T04:38:12.305Z,100576.34
2022-10-20T04:40:39.532Z,100577.28
2022-10-20T04:43:06.671Z,100571.03
2022-10-20T04:45:33.949Z,100570.72
2022-10-20T04:48:02.239Z,100575.88
2022-10-20T04:50:29.404Z,100573.56
2022-10-20T04:53:08.395Z,100569.19
2022-10-20T04:55:36.223Z,100576.19
2022-10-20T04:58:03.883Z,100586.63
2022-10-20T05:00:31.015Z,100581.31
2022-10-20T05:02:58.328Z,100575.53
2022-10-20T05:05:25.541Z,100570.72
2022-10-20T05:07:52.687Z,100566.50
2022-10-20T05:10:20.722Z,100562.38
2022-10-20T05:12:47.891Z,100550.22
2022-10-20T05:15:15.506Z,100546.53
2022-10-20T05:17:43.019Z,100548.88
2022-10-20T05:20:10.640Z,100542.34
2022-10-20T05:22:38.170Z,100540.25
2022-10-20T05:25:31.382Z,100544.28
2022-10-20T05:27:53.371Z,100542.28
2022-10-20T05:30:20.581Z,100548.53
2022-10-20T05:32:47.865Z,100531.78
2022-10-20T05:35:15.237Z,100538.66
2022-10-20T05:37:42.617Z,100541.44
2022-10-20T05:40:10.857Z,100534.19
2022-10-20T05:42:38.493Z,100541.22
2022-10-20T05:45:08.130Z,100534.25
2022-10-20T05:47:35.396Z,100547.53
2022-10-20T05:50:02.773Z,100561.13
2022-10-20T05:52:30.049Z,100561.78
2022-10-20T05:54:57.392Z,100561.59
2022-10-20T05:57:24.556Z,100568.44
2022-10-20T05:59:51.708Z,100565.38
2022-10-20T06:02:18.899Z,100565.00
2022-10-20T06:04:46.057Z,100571.53
2022-10-20T06:07:13.230Z,100567.38
2022-10-20T06:09:41.116Z,100562.94
2022-10-20T06:14:40.513Z,100568.00
2022-10-20T06:17:07.809Z,100571.94
2022-10-20T06:19:34.945Z,100572.28
2022-10-20T06:22:05.496Z,100575.09
2022-10-20T06:24:34.778Z,100580.66
2022-10-20T06:27:01.965Z,100582.66
2022-10-20T06:29:29.088Z,100576.69
2022-10-20T06:31:56.825Z,100583.13
2022-10-20T06:34:25.926Z,100591.38
2022-10-20T06:36:53.434Z,100600.47
2022-10-20T06:39:24.050Z,100604.28
2022-10-20T06:41:54.494Z,100610.13
2022-10-20T06:44:24.588Z,100605.25
2022-10-20T06:46:55.082Z,100613.69
2022-10-20T06:49:22.672Z,100609.75
2022-10-20T06:51:50.407Z,100616.97
2022-10-20T06:54:18.034Z,100611.84
2022-10-20T06:56:45.260Z,100615.13
2022-10-20T06:59:12.352Z,100620.56
2022-10-20T07:01:40.399Z,100631.38
2022-10-20T07:04:15.268Z,100637.94
2022-10-20T07:06:45.848Z,100634.06
2022-10-20T07:09:18.743Z,100642.47
2022-10-20T07:11:46.612Z,100653.34
2022-10-20T07:14:14.239Z,100651.50
2022-10-20T07:16:41.698Z,100652.19
2022-10-20T07:19:09.178Z,100659.13
2022-10-20T07:21:38.328Z,100659.25
2022-10-20T07:24:09.497Z,100649.59
2022-10-20T07:26:40.310Z,100647.22
2022-10-20T07:29:08.075Z,100642.34
2022-10-20T07:31:46.962Z,100653.16
2022-10-20T07:34:25.863Z,100657.38
2022-10-20T07:36:56.187Z,100660.47
2022-10-20T07:39:24.309Z,100655.19
2022-10-20T07:41:51.915Z,100658.88
2022-10-20T07:44:19.320Z,100657.47
2022-10-20T07:46:46.616Z,100658.66
2022-10-20T07:52:01.188Z,100659.88
2022-10-20T07:54:28.293Z,100662.03
2022-10-20T07:56:55.672Z,100652.66
2022-10-20T07:59:22.895Z,100654.09
2022-10-20T08:01:51.221Z,100657.97
2022-10-20T08:04:19.681Z,100663.56
2022-10-20T08:06:47.234Z,100671.09
2022-10-20T08:09:14.353Z,100670.88
2022-10-20T08:11:41.581Z,100668.47
2022-10-20T08:14:08.805Z,100668.63
2022-10-20T08:16:43.070Z,100672.31
2022-10-20T08:21:54.234Z,100676.16
2022-10-20T08:24:22.084Z,100677.25
2022-10-20T08:26:49.224Z,100672.38
2022-10-20T08:29:16.383Z,100682.03
2022-10-20T08:31:44.877Z,100670.81
2022-10-20T08:34:12.085Z,100679.19
2022-10-20T08:36:39.347Z,100673.38
2022-10-20T08:39:06.693Z,100676.09
2022-10-20T08:44:35.064Z,100671.88
2022-10-20T08:47:06.117Z,100673.75
2022-10-20T08:49:35.129Z,100666.88
2022-10-20T08:52:02.783Z,100676.00
2022-10-20T08:54:34.007Z,100675.41
2022-10-20T08:57:01.281Z,100676.31
2022-10-20T08:59:36.546Z,100681.66
2022-10-20T09:02:17.001Z,100688.34
2022-10-20T09:04:59.590Z,100683.44
2022-10-20T09:07:36.325Z,100677.28
2022-10-20T09:10:18.589Z,100684.66
2022-10-20T09:12:48.868Z,100676.84
2022-10-20T09:15:18.594Z,100673.91
2022-10-20T09:18:02.873Z,100670.53
2022-10-20T09:20:53.603Z,100669.03
2022-10-20T09:23:41.130Z,100670.78
2022-10-20T09:26:30.634Z,100668.34
2022-10-20T09:29:15.278Z,100665.94
2022-10-20T09:31:53.822Z,100668.72
2022-10-20T09:34:23.118Z,100670.78
2022-10-20T09:37:18.674Z,100677.34
2022-10-20T09:39:59.243Z,100668.22
2022-10-20T09:42:35.735Z,100664.19
2022-10-20T09:45:26.804Z,100661.72
2022-10-20T09:48:31.073Z,100655.38
2022-10-20T09:51:00.264Z,100659.78
2022-10-20T09:53:47.372Z,100662.34
2022-10-20T09:56:36.141Z,100660.81
2022-10-20T09:59:18.112Z,100661.75
2022-10-20T10:02:02.961Z,100659.88
2022-10-20T10:04:38.481Z,100658.06
2022-10-20T10:07:26.831Z,100654.47
2022-10-20T10:10:05.417Z,100660.66
2022-10-20T10:12:36.323Z,100660.75
2022-10-20T10:15:36.864Z,100661.91
2022-10-20T10:18:21.829Z,100659.53
2022-10-20T10:21:10.385Z,100663.00
2022-10-20T10:23:57.813Z,100667.28
2022-10-20T10:26:54.292Z,100663.28
2022-10-20T10:29:30.077Z,100653.94
2022-10-20T10:32:23.975Z,100650.50
2022-10-20T10:35:29.211Z,100642.56
2022-10-20T10:37:58.321Z,100632.13
2022-10-20T10:41:29.768Z,100624.53
2022-10-20T10:44:14.280Z,100633.94
2022-10-20T10:47:33.318Z,100628.84
2022-10-20T10:50:48.395Z,100626.75
2022-10-20T10:53:36.819Z,100622.13
2022-10-20T10:56:43.302Z,100630.94
2022-10-20T10:59:40.719Z,100626.47
2022-10-20T11:02:52.654Z,100612.69
2022-10-20T11:05:56.570Z,100604.34
2022-10-20T11:09:10.157Z,100602.81
2022-10-20T11:12:29.122Z,100598.72
2022-10-20T11:15:40.759Z,100589.28
2022-10-20T11:18:44.942Z,100591.16
2022-10-20T11:21:50.839Z,100592.03
2022-10-20T11:25:09.811Z,100589.59
2022-10-20T11:27:38.978Z,100591.03
2022-10-20T11:30:21.351Z,100592.16
2022-10-20T11:33:13.170Z,100582.25
2022-10-20T11:36:09.351Z,100573.31
2022-10-20T11:38:47.202Z,100569.06
2022-10-20T11:41:47.457Z,100567.16
2022-10-20T11:44:40.790Z,100559.75
2022-10-20T11:47:27.814Z,100557.72
2022-10-20T11:49:55.039Z,100545.28
2022-10-20T11:52:58.979Z,100542.66
2022-10-20T11:56:27.264Z,100545.53
2022-10-20T11:59:15.861Z,100534.81
2022-10-20T12:02:29.453Z,100515.84
2022-10-20T12:05:23.017Z,100526.56
2022-10-20T12:08:49.475Z,100520.91
2022-10-20T12:12:08.848Z,100524.44
2022-10-20T12:14:51.038Z,100519.97
2022-10-20T12:17:36.292Z,100515.78
2022-10-20T12:20:21.834Z,100518.47
2022-10-20T12:22:54.967Z,100517.59
2022-10-20T12:25:25.417Z,100511.22
2022-10-20T12:28:20.417Z,100514.91
2022-10-20T12:31:03.179Z,100514.91
2022-10-20T12:33:48.967Z,100512.81
2022-10-20T12:36:18.680Z,100512.72
2022-10-20T12:38:55.078Z,100508.03
2022-10-20T12:41:35.255Z,100511.75
2022-10-20T12:44:18.750Z,100510.09
2022-10-20T12:47:08.168Z,100507.69
2022-10-20T12:49:53.048Z,100507.75
2022-10-20T12:52:28.645Z,100500.56
2022-10-20T12:55:09.076Z,100504.13
2022-10-20T12:57:44.964Z,100493.53
2022-10-20T13:00:23.992Z,100495.38
2022-10-20T13:02:59.941Z,100491.72
2022-10-20T13:05:46.718Z,100491.53
2022-10-20T13:08:19.941Z,100490.44
2022-10-20T13:10:49.224Z,100485.84
2022-10-20T13:13:19.442Z,100486.63
2022-10-20T13:15:52.538Z,100480.31
2022-10-20T13:18:29.041Z,100492.00
2022-10-20T13:21:31.844Z,100482.84
2022-10-20T13:29:38.128Z,100482.41
2022-10-20T13:32:25.335Z,100475.50
2022-10-20T13:35:27.864Z,100472.31
2022-10-20T13:38:35.938Z,100476.16
2022-10-20T13:41:31.069Z,100479.00
2022-10-20T13:44:38.750Z,100482.53
2022-10-20T13:47:42.349Z,100478.06
2022-10-20T13:50:30.090Z,100473.06
2022-10-20T13:53:20.655Z,100474.19
2022-10-20T13:56:38.265Z,100469.94
2022-10-20T13:59:14.627Z,100458.34
2022-10-20T14:01:51.496Z,100459.28
2022-10-20T14:04:37.232Z,100463.63
2022-10-20T14:07:13.054Z,100465.31
2022-10-20T14:09:45.446Z,100457.19
2022-10-20T14:12:25.339Z,100458.78
2022-10-20T14:15:00.729Z,100454.22
2022-10-20T14:17:29.248Z,100461.97
2022-10-20T14:20:21.110Z,100457.38
2022-10-20T14:22:49.578Z,100451.94
2022-10-20T14:25:17.624Z,100451.00
2022-10-20T14:27:45.214Z,100458.94
2022-10-20T14:30:17.767Z,100456.25
2022-10-20T14:32:48.373Z,100462.38
2022-10-20T14:35:28.821Z,100461.47
2022-10-20T14:38:24.969Z,100457.84
2022-10-20T14:40:57.072Z,100455.25
2022-10-20T14:43:43.908Z,100458.09
2022-10-20T14:46:25.846Z,100454.59
2022-10-20T14:48:53.012Z,100457.28
2022-10-20T14:51:54.935Z,100456.41
2022-10-20T14:54:31.365Z,100463.41
2022-10-20T14:57:09.954Z,100460.72
2022-10-20T15:00:22.673Z,100462.41
2022-10-20T15:02:56.342Z,100448.16
2022-10-20T15:05:26.476Z,100452.44
2022-10-20T15:07:54.542Z,100440.91
2022-10-20T15:10:26.111Z,100456.84
2022-10-20T15:12:55.734Z,100455.88
2022-10-20T15:15:35.408Z,100446.88
2022-10-20T15:18:19.685Z,100448.56
2022-10-20T15:20:48.945Z,100448.53
2022-10-20T15:23:24.377Z,100450.22
2022-10-20T15:26:06.477Z,100445.75
2022-10-20T15:28:40.602Z,100445.69
2022-10-20T15:31:29.976Z,100442.03
2022-10-20T15:33:58.701Z,100437.44
2022-10-20T15:36:33.729Z,100439.00
2022-10-20T15:39:01.174Z,100436.25
2022-10-20T15:41:36.344Z,100434.25
2022-10-20T15:44:23.868Z,100435.13
2022-10-20T15:46:56.281Z,100445.72
2022-10-20T15:49:23.893Z,100446.69
2022-10-20T15:51:51.351Z,100443.09
2022-10-20T15:54:21.929Z,100437.69
2022-10-20T15:56:49.445Z,100427.78
2022-10-20T15:59:16.576Z,100425.84
2022-10-20T16:01:43.809Z,100438.94
2022-10-20T16:04:19.632Z,100431.84
2022-10-20T16:06:47.185Z,100434.38
2022-10-20T16:09:16.046Z,100431.44
2022-10-20T16:11:44.638Z,100439.19
2022-10-20T16:14:13.451Z,100440.84
2022-10-20T16:16:41.474Z,100448.75
2022-10-20T16:19:08.940Z,100444.25
2022-10-20T16:21:36.433Z,100438.03
2022-10-20T16:24:04.970Z,100435.31
2022-10-20T16:26:33.951Z,100429.19
2022-10-20T16:29:01.209Z,100427.28
2022-10-20T16:31:29.327Z,100418.28
2022-10-20T16:34:00.144Z,100423.41
2022-10-20T16:36:27.463Z,100422.41
2022-10-20T16:38:57.355Z,100423.09
2022-10-20T16:41:24.680Z,100426.41
2022-10-20T16:43:52.094Z,100418.31
2022-10-20T16:46:19.358Z,100417.28
2022-10-20T16:48:48.198Z,100414.25
2022-10-20T16:51:17.549Z,100420.38
2022-10-20T16:53:45.189Z,100412.28
2022-10-20T16:56:15.420Z,100419.13
2022-10-20T16:58:45.827Z,100413.59
2022-10-20T17:01:16.243Z,100417.81
2022-10-20T17:03:48.355Z,100426.63
2022-10-20T17:06:22.488Z,100428.28
2022-10-20T17:08:50.851Z,100423.75
2022-10-20T17:11:32.174Z,100430.56
2022-10-20T17:14:00.021Z,100426.94
2022-10-20T17:16:34.434Z,100421.50
2022-10-20T17:19:02.908Z,100424.16
2022-10-20T17:21:32.392Z,100414.38
2022-10-20T17:24:00.258Z,100415.28
2022-10-20T17:26:30.830Z,100423.25
2022-10-20T17:29:01.291Z,100418.94
2022-10-20T17:31:30.318Z,100427.69
2022-10-20T17:33:59.372Z,100424.03
2022-10-20T17:36:28.467Z,100432.84
2022-10-20T17:39:06.298Z,100432.84
2022-10-20T17:41:33.663Z,100440.72
2022-10-20T17:44:04.545Z,100431.88
2022-10-20T17:46:33.333Z,100417.59
2022-10-20T17:49:03.578Z,100417.53
2022-10-20T17:51:34.406Z,100421.78
2022-10-20T17:54:03.525Z,100429.72
2022-10-20T17:56:36.159Z,100426.06
2022-10-20T17:59:07.363Z,100423.38
2022-10-20T18:01:44.014Z,100425.16
2022-10-20T18:04:16.558Z,100418.91
2022-10-20T18:06:45.387Z,100415.34
2022-10-20T18:09:17.153Z,100414.34
2022-10-20T18:11:50.045Z,100421.19
2022-10-20T18:14:17.753Z,100420.41
2022-10-20T18:16:46.136Z,100415.16
2022-10-20T18:19:18.291Z,100415.00
2022-10-20T18:21:47.509Z,100426.44
2022-10-20T18:24:17.612Z,100424.66
2022-10-20T18:26:45.454Z,100434.41
2022-10-20T18:29:14.955Z,100430.72
2022-10-20T18:31:45.931Z,100436.78
2022-10-20T18:34:20.361Z,100442.94
2022-10-20T18:36:49.538Z,100445.53
2022-10-20T18:39:17.714Z,100450.81
2022-10-20T18:41:45.482Z,100450.75
2022-10-20T18:44:17.713Z,100447.03
2022-10-20T18:46:47.170Z,100442.56
2022-10-20T18:49:21.445Z,100431.84
2022-10-20T18:51:48.705Z,100435.34
2022-10-20T18:54:18.411Z,100432.69
2022-10-20T18:56:45.726Z,100418.47
2022-10-20T18:59:16.264Z,100407.81
2022-10-20T19:01:43.788Z,100403.34
2022-10-20T19:04:12.656Z,100410.38
2022-10-20T19:06:47.161Z,100422.63
2022-10-20T19:09:21.088Z,100434.19
2022-10-20T19:14:22.169Z,100432.41
2022-10-20T19:16:50.092Z,100435.69
2022-10-20T19:19:17.422Z,100439.78
2022-10-20T19:21:45.096Z,100433.41
2022-10-20T19:24:19.411Z,100432.28
2022-10-20T19:26:57.559Z,100435.75
2022-10-20T19:29:35.736Z,100433.81
2022-10-20T19:32:05.760Z,100424.03
2022-10-20T19:34:40.229Z,100424.94
2022-10-20T19:37:08.098Z,100421.38
2022-10-20T19:39:41.022Z,100415.28
2022-10-20T19:42:10.214Z,100426.63
2022-10-20T19:44:39.027Z,100429.16
2022-10-20T19:47:07.971Z,100431.75
2022-10-20T19:49:35.472Z,100428.19
2022-10-20T19:52:04.539Z,100424.69
2022-10-20T19:54:31.670Z,100418.59
2022-10-20T19:56:59.353Z,100415.94
2022-10-20T19:59:26.652Z,100426.41
2022-10-20T20:01:53.942Z,100434.31
2022-10-20T20:04:21.213Z,100438.69
2022-10-20T20:06:48.879Z,100435.09
2022-10-20T20:09:16.384Z,100430.56
2022-10-20T20:11:44.352Z,100429.66
2022-10-20T20:14:19.216Z,100433.25
2022-10-20T20:16:47.523Z,100430.75
2022-10-20T20:19:17.182Z,100427.25
2022-10-20T20:21:45.841Z,100430.75
2022-10-20T20:24:14.281Z,100419.34
2022-10-20T20:26:44.524Z,100415.84
2022-10-20T20:29:12.130Z,100414.91
2022-10-20T20:31:39.384Z,100428.94
2022-10-20T20:34:06.678Z,100425.19
2022-10-20T20:36:34.243Z,100427.69
2022-10-20T20:39:02.074Z,100427.56
2022-10-20T20:41:31.092Z,100421.44
2022-10-20T20:44:01.026Z,100425.09
2022-10-20T20:46:31.019Z,100425.19
2022-10-20T20:48:58.576Z,100427.78
2022-10-20T20:51:26.966Z,100427.84
2022-10-20T20:53:55.023Z,100433.91
2022-10-20T20:56:24.622Z,100435.59
2022-10-20T20:58:55.309Z,100417.13
2022-10-20T21:01:29.148Z,100423.34
2022-10-20T21:04:00.657Z,100432.03
2022-10-20T21:06:34.000Z,100431.16
2022-10-20T21:09:09.248Z,100438.13
2022-10-20T21:11:37.053Z,100438.13
2022-10-20T21:14:04.921Z,100447.81
2022-10-20T21:16:36.655Z,100447.66
2022-10-20T21:19:10.036Z,100449.31
2022-10-20T21:21:50.384Z,100459.88
2022-10-20T21:24:18.453Z,100447.41
2022-10-20T21:26:45.818Z,100436.75
2022-10-20T21:29:12.974Z,100427.03
2022-10-20T21:31:41.039Z,100429.56
2022-10-20T21:34:08.623Z,100432.97
2022-10-20T21:36:39.952Z,100435.69
2022-10-20T21:39:13.012Z,100440.06
2022-10-20T21:41:40.460Z,100438.34
2022-10-20T21:44:09.593Z,100440.13
2022-10-20T21:46:47.139Z,100440.19
2022-10-20T21:49:20.235Z,100435.91
2022-10-20T21:51:57.394Z,100431.47
2022-10-20T21:54:28.413Z,100424.50
2022-10-20T21:56:56.663Z,100434.09
2022-10-20T21:59:30.343Z,100431.41
2022-10-20T22:02:01.297Z,100426.13
2022-10-20T22:04:30.461Z,100418.22
2022-10-20T22:06:59.299Z,100423.53
2022-10-20T22:09:26.840Z,100421.66
2022-10-20T22:11:56.546Z,100426.19
2022-10-20T22:14:24.145Z,100428.81
2022-10-20T22:16:51.962Z,100426.19
2022-10-20T22:19:23.570Z,100413.94
2022-10-20T22:21:52.702Z,100403.41
2022-10-20T22:24:21.818Z,100406.13
2022-10-20T22:26:52.012Z,100397.25
2022-10-20T22:29:22.681Z,100390.19
2022-10-20T22:31:50.122Z,100384.91
2022-10-20T22:34:17.449Z,100390.19
2022-10-20T22:36:44.786Z,100391.06
2022-10-20T22:41:45.681Z,100398.88
2022-10-20T22:44:13.005Z,100396.06
2022-10-20T22:46:40.144Z,100403.03
2022-10-20T22:49:07.340Z,100393.28
2022-10-20T22:51:34.518Z,100408.34
2022-10-20T22:54:01.783Z,100402.22
2022-10-20T22:56:29.057Z,100408.41
2022-10-20T22:58:56.189Z,100398.66
2022-10-20T23:01:24.201Z,100414.28
2022-10-20T23:03:51.972Z,100420.41
2022-10-20T23:06:25.024Z,100426.59
2022-10-20T23:08:56.308Z,100431.66
2022-10-20T23:11:23.810Z,100430.53
2022-10-20T23:13:51.443Z,100427.72
2022-10-20T23:16:19.558Z,100420.69
2022-10-20T23:18:47.688Z,100429.44
2022-10-20T23:21:15.256Z,100425.84
2022-10-20T23:23:44.760Z,100425.63
2022-10-20T23:26:13.445Z,100430.66
2022-10-20T23:28:40.741Z,100437.63
2022-10-20T23:31:19.920Z,100432.28
2022-10-20T23:33:50.204Z,100423.50
2022-10-20T23:36:17.669Z,100431.47
2022-10-20T23:38:46.165Z,100434.16
2022-10-20T23:41:14.629Z,100427.84
2022-10-20T23:43:41.913Z,100426.94
2022-10-20T23:46:12.042Z,100429.59
2022-10-20T23:48:39.898Z,100433.81
2022-10-20T23:51:08.041Z,100437.16
2022-10-20T23:53:35.780Z,100446.16
2022-10-20T23:56:03.459Z,100440.06
2022-10-20T23:58:30.613Z,100433.13
